^^
Datos históricos de la estación: Murcia-Puente Tocinos
Diario Informe para Octubre 18, 2021 Unidades:  Métrico    Ingés   Ambas
Diario Semanal Mensual Anual
  Máxima: Mínima: Promedio:
Temperatura: 24.8 °C 17.1 °C 20.2 °C
Punto de rocio: 17.1 °C 14.7 °C 16.1 °C
Humedad: 89% 57% 78%
Velocidad viento: 12.2km/h 0km/h 5.6km/h
Racha viento: 22.2km/h - -
Viento- - SE
Presión: 1024.5 hPa 1019.9 hPa -
Precipitación: 0.0 mm    
 
 
Tabla de datos para Octubre 18, 2021
Hora Temperatura Punto de rocio Presión Viento Velocidad viento Racha viento Humedad Intensidad lluvia(por hora) Nubes
00:04 18.8 °C 16.4 °C 1019.9 hPa NNE 6.4 km/h 11.9 km/h 86% 0.0 mm
00:09 18.8 °C 16.6 °C 1019.9 hPa NNE 6.8 km/h 11.1 km/h 86.8% 0.0 mm
00:14 18.7 °C 16.5 °C 1019.9 hPa NNE 7.6 km/h 11.9 km/h 87% 0.0 mm
00:19 18.7 °C 16.5 °C 1019.9 hPa NE 7.1 km/h 11.9 km/h 87% 0.0 mm
00:24 18.7 °C 16.5 °C 1020.0 hPa NE 6.4 km/h 13 km/h 87% 0.0 mm
00:29 18.6 °C 16.4 °C 1020.0 hPa NNE 6.9 km/h 11.1 km/h 87% 0.0 mm
00:34 18.5 °C 16.4 °C 1020.0 hPa NNE 7.6 km/h 9.3 km/h 87.5% 0.0 mm
00:39 18.4 °C 16.4 °C 1020.0 hPa NNE 6.8 km/h 8.4 km/h 88% 0.0 mm
00:44 18.3 °C 16.3 °C 1020.0 hPa North 5.8 km/h 7.6 km/h 88% 0.0 mm
00:49 18.2 °C 16.2 °C 1020.0 hPa NNE 5.3 km/h 7.4 km/h 88% 0.0 mm
00:54 18.2 °C 16.2 °C 1020.0 hPa NNE 4.7 km/h 5.8 km/h 88% 0.0 mm
00:59 18.2 °C 16.2 °C 1020.0 hPa NNE 3.9 km/h 5.6 km/h 88% 0.0 mm
01:04 18.1 °C 16.1 °C 1020.0 hPa NNE 2.9 km/h 5.8 km/h 88% 0.0 mm
01:09 18.1 °C 16.1 °C 1020.1 hPa NNE 3 km/h 3.7 km/h 88.3% 0.0 mm
01:14 18.1 °C 16.3 °C 1020.1 hPa NNE 3.2 km/h 3.9 km/h 89% 0.0 mm
01:19 18.1 °C 16.3 °C 1020.1 hPa NNE 1.9 km/h 6.4 km/h 89% 0.0 mm
01:24 18.1 °C 16.2 °C 1020.1 hPa Calm   9.5 km/h 89% 0.0 mm
01:29 18.1 °C 16.3 °C 1020.1 hPa NE 1.9 km/h 7.4 km/h 89% 0.0 mm
01:34 18.1 °C 16.3 °C 1020.1 hPa NE 4.7 km/h 7.4 km/h 89% 0.0 mm
01:39 18.1 °C 16.3 °C 1020.2 hPa NE 4.3 km/h 7.4 km/h 89% 0.0 mm
01:44 18.1 °C 16.3 °C 1020.2 hPa NNE 3.9 km/h 7.4 km/h 89% 0.0 mm
01:49 18.1 °C 16.3 °C 1020.2 hPa NNE 4.2 km/h 7.4 km/h 89% 0.0 mm
01:54 18.1 °C 16.3 °C 1020.2 hPa NNE 4.7 km/h 7.6 km/h 89% 0.0 mm
01:59 18.1 °C 16.3 °C 1020.2 hPa NNE 4.8 km/h 8.4 km/h 89% 0.0 mm
02:04 18.1 °C 16.3 °C 1020.2 hPa NNE 5 km/h 8.4 km/h 89% 0.0 mm
02:09 18.1 °C 16.3 °C 1020.2 hPa NE 5.3 km/h 7.4 km/h 89% 0.0 mm
02:14 18.1 °C 16.3 °C 1020.2 hPa NE 5.8 km/h 7.4 km/h 89% 0.0 mm
02:19 18.1 °C 16.3 °C 1020.2 hPa NE 5.3 km/h 7.4 km/h 89% 0.0 mm
02:24 18.1 °C 16.3 °C 1020.2 hPa Este 4.7 km/h 7.4 km/h 89% 0.0 mm
02:29 17.9 °C 16 °C 1020.2 hPa Este 4.7 km/h 7.6 km/h 88.5% 0.0 mm
02:34 17.8 °C 15.8 °C 1020.2 hPa ESE 4.7 km/h 7.4 km/h 88% 0.0 mm
02:39 17.8 °C 15.9 °C 1020.2 hPa ESE 4.3 km/h 5.6 km/h 88.8% 0.0 mm
02:44 17.8 °C 15.9 °C 1020.2 hPa ESE 3.9 km/h   88.7% 0.0 mm
02:49 17.8 °C 15.8 °C 1020.2 hPa ESE 2.3 km/h   88% 0.0 mm
02:54 17.8 °C 15.9 °C 1020.2 hPa Calm     88.8% 0.0 mm
02:59 17.8 °C 15.9 °C 1020.2 hPa Calm   3.9 km/h 88.5% 0.0 mm
03:04 17.8 °C 15.8 °C 1020.2 hPa Calm   3.7 km/h 88% 0.0 mm
03:09 17.8 °C 15.8 °C 1020.2 hPa Calm   3.7 km/h 88% 0.0 mm
03:14 17.8 °C 15.8 °C 1020.1 hPa Calm   3.9 km/h 88% 0.0 mm
03:19 17.8 °C 15.8 °C 1020.1 hPa ESE 0.9 km/h 3.7 km/h 88% 0.0 mm
03:24 17.8 °C 15.8 °C 1020.1 hPa ESE 2.3 km/h 4.7 km/h 88% 0.0 mm
03:29 17.8 °C 15.8 °C 1020.0 hPa ESE 2.3 km/h 3.9 km/h 88% 0.0 mm
03:34 17.8 °C 15.8 °C 1020.0 hPa ESE 2.3 km/h   88% 0.0 mm
03:39 17.8 °C 15.8 °C 1020.1 hPa ESE 1.3 km/h   88.3% 0.0 mm
03:44 17.8 °C 15.9 °C 1020.1 hPa Calm   3.9 km/h 89% 0.0 mm
03:49 17.8 °C 15.9 °C 1020.1 hPa Calm   3.9 km/h 89% 0.0 mm
03:54 17.8 °C 15.8 °C 1020.2 hPa Calm   5.6 km/h 88.3% 0.0 mm
03:59 17.8 °C 15.8 °C 1020.2 hPa SE 1 km/h 5 km/h 88% 0.0 mm
04:04 17.8 °C 15.8 °C 1020.2 hPa SE 2.3 km/h 5.6 km/h 88% 0.0 mm
04:09 17.8 °C 15.8 °C 1020.2 hPa SE 2.5 km/h 5.8 km/h 88% 0.0 mm
04:14 17.8 °C 15.8 °C 1020.1 hPa SSE 2.9 km/h 7.4 km/h 88% 0.0 mm
04:19 17.7 °C 15.7 °C 1020.1 hPa SSE 3.6 km/h 7.6 km/h 87.7% 0.0 mm
04:24 17.7 °C 15.5 °C 1020.1 hPa SSE 4.7 km/h 9.3 km/h 87% 0.0 mm
04:29 17.6 °C 15.4 °C 1019.9 hPa Sur 5.1 km/h 8.7 km/h 87% 0.0 mm
04:34 17.6 °C 15.4 °C 1019.9 hPa SSE 5.8 km/h 9.3 km/h 87% 0.0 mm
04:39 17.5 °C 15.1 °C 1019.9 hPa SSE 5.8 km/h 9.3 km/h 86% 0.0 mm
04:44 17.5 °C 15.1 °C 1019.9 hPa SSO 5.8 km/h 8.4 km/h 86% 0.0 mm
04:49 17.6 °C 15.2 °C 1019.9 hPa SO 5.3 km/h 7.4 km/h 86% 0.0 mm
04:54 17.6 °C 15.2 °C 1020.1 hPa OSO 4.7 km/h 7.6 km/h 86% 0.0 mm
04:59 17.6 °C 15.2 °C 1020.1 hPa Oeste 4.8 km/h 8.7 km/h 86% 0.0 mm
05:04 17.6 °C 15.2 °C 1020.1 hPa OSO 5 km/h 9.5 km/h 86% 0.0 mm
05:09 17.5 °C 15.2 °C 1020.2 hPa OSO 5.3 km/h 8.4 km/h 86.5% 0.0 mm
05:14 17.4 °C 15.2 °C 1020.2 hPa OSO 5.8 km/h 7.4 km/h 87% 0.0 mm
05:19 17.4 °C 15.2 °C 1020.2 hPa SSO 5 km/h 7.4 km/h 87% 0.0 mm
05:24 17.4 °C 15.3 °C 1020.2 hPa Sur 3.9 km/h 5.8 km/h 87% 0.0 mm
05:29 17.5 °C 15.3 °C 1020.2 hPa SE 4.2 km/h 10.3 km/h 87% 0.0 mm
05:34 17.4 °C 15.2 °C 1020.2 hPa SE 4.7 km/h 11.1 km/h 86.4% 0.0 mm
05:39 17.4 °C 15.1 °C 1020.3 hPa SE 5.6 km/h 9.3 km/h 86% 0.0 mm
05:44 17.3 °C 14.9 °C 1020.3 hPa SSE 6.9 km/h 7.6 km/h 86% 0.0 mm
05:49 17.2 °C 14.9 °C 1020.3 hPa SSE 6.4 km/h 11.1 km/h 86% 0.0 mm
05:54 17.2 °C 14.8 °C 1020.3 hPa SSE 5.8 km/h 9.5 km/h 86% 0.0 mm
05:59 17.1 °C 14.7 °C 1020.3 hPa Sur 6.1 km/h 8.4 km/h 86% 0.0 mm
06:04 17.1 °C 14.9 °C 1020.3 hPa Sur 6.4 km/h 7.6 km/h 87% 0.0 mm
06:09 17.1 °C 14.9 °C 1020.4 hPa SSO 5.7 km/h 7.6 km/h 87% 0.0 mm
06:14 17.1 °C 14.9 °C 1020.4 hPa SSO 4.7 km/h 7.6 km/h 87% 0.0 mm
06:19 17.2 °C 15 °C 1020.4 hPa SSO 4.3 km/h 5.8 km/h 87% 0.0 mm
06:24 17.2 °C 15 °C 1020.4 hPa SO 3.9 km/h 7.4 km/h 87% 0.0 mm
06:29 17.2 °C 15 °C 1020.4 hPa OSO 3.9 km/h 7.4 km/h 87% 0.0 mm
06:34 17.2 °C 15 °C 1020.4 hPa OSO 3.9 km/h 5.8 km/h 87% 0.0 mm
06:39 17.2 °C 15 °C 1020.6 hPa SO 3.6 km/h 8.4 km/h 87% 0.0 mm
06:44 17.2 °C 15 °C 1020.6 hPa SO 3.2 km/h 9.5 km/h 87% 0.0 mm
06:49 17.2 °C 15 °C 1020.6 hPa SSO 4.3 km/h 11.9 km/h 87% 0.0 mm
06:54 17.2 °C 15.1 °C 1020.6 hPa SSO 5.8 km/h 11.1 km/h 87.4% 0.0 mm
06:59 17.2 °C 15.2 °C 1020.6 hPa SO 6.3 km/h 7.4 km/h 88% 0.0 mm
07:04 17.3 °C 15.3 °C 1020.6 hPa SSO 6.9 km/h 8.4 km/h 88% 0.0 mm
07:09 17.3 °C 15.3 °C 1020.6 hPa Sur 6.1 km/h 7.6 km/h 88% 0.0 mm
07:14 17.2 °C 15.2 °C 1020.6 hPa SSO 5 km/h 8.4 km/h 88% 0.0 mm
07:19 17.2 °C 15.2 °C 1020.6 hPa SO 5.3 km/h 10 km/h 88% 0.0 mm
07:24 17.2 °C 15.1 °C 1020.8 hPa SO 5.8 km/h 10.3 km/h 87.7% 0.0 mm
07:29 17.2 °C 15 °C 1020.8 hPa SO 6.1 km/h 11.1 km/h 87.2% 0.0 mm
07:34 17.2 °C 15.2 °C 1020.8 hPa SO 6.4 km/h 9.5 km/h 88% 0.0 mm
07:39 17.2 °C 15.2 °C 1020.8 hPa OSO 6.4 km/h 11.1 km/h 88% 0.0 mm
07:44 17.2 °C 15.2 °C 1020.8 hPa OSO 6.4 km/h 11.9 km/h 88% 0.0 mm
07:49 17.2 °C 15.1 °C 1020.8 hPa SO 6.6 km/h 13 km/h 88% 0.0 mm
07:54 17.1 °C 15.1 °C 1021.0 hPa SSO 6.9 km/h 10 km/h 88% 0.0 mm
07:59 17.1 °C 15.1 °C 1021.0 hPa SO 6.7 km/h 9.5 km/h 88% 0.0 mm
08:04 17.2 °C 15.1 °C 1021.0 hPa SSO 6.4 km/h 8.4 km/h 88% 0.0 mm
08:09 17.2 °C 15.2 °C 1021.2 hPa Sur 5.8 km/h 11.1 km/h 88% 0.0 mm
08:14 17.2 °C 15.2 °C 1021.2 hPa SSO 5 km/h 9.5 km/h 88% 0.0 mm
08:19 17.3 °C 15.2 °C 1021.2 hPa SSO 5.3 km/h 9.3 km/h 88% 0.0 mm
08:24 17.3 °C 15.2 °C 1021.2 hPa Sur 5.8 km/h 7.6 km/h 87.5% 0.0 mm
08:29 17.3 °C 15.2 °C 1021.2 hPa Sur 5.5 km/h 9.3 km/h 87% 0.0 mm
08:34 17.4 °C 15.2 °C 1021.2 hPa SSE 5 km/h 8.4 km/h 87% 0.0 mm
08:39 17.5 °C 15.3 °C 1021.3 hPa SSE 4.9 km/h 7.4 km/h 87% 0.0 mm
08:44 17.5 °C 15.4 °C 1021.3 hPa SE 4.7 km/h 9.5 km/h 87% 0.0 mm
08:49 17.6 °C 15.3 °C 1021.3 hPa SSE 5.1 km/h 10 km/h 86.5% 0.0 mm
08:54 17.6 °C 15.3 °C 1021.4 hPa SSE 5.8 km/h 10 km/h 86.4% 0.0 mm
08:59 17.6 °C 15.3 °C 1021.4 hPa Sur 6.1 km/h 9.5 km/h 86% 0.0 mm
09:04 17.7 °C 15.4 °C 1021.4 hPa SSO 6.4 km/h 11.1 km/h 86.5% 0.0 mm
09:09 17.8 °C 15.6 °C 1021.6 hPa SSO 6.4 km/h 9.3 km/h 87% 0.0 mm
09:14 17.9 °C 15.7 °C 1021.6 hPa SO 6.4 km/h 7.4 km/h 87% 0.0 mm
09:19 18 °C 15.8 °C 1021.6 hPa SO 5.7 km/h 7.4 km/h 87% 0.0 mm
09:24 18.1 °C 15.9 °C 1021.7 hPa OSO 4.7 km/h 9.5 km/h 87% 0.0 mm
09:29 18.2 °C 15.9 °C 1021.7 hPa OSO 4.8 km/h 9.5 km/h 86.7% 0.0 mm
09:34 18.1 °C 15.7 °C 1021.7 hPa Oeste 5 km/h 9.5 km/h 86% 0.0 mm
09:39 18.1 °C 15.7 °C 1021.9 hPa Oeste 5.6 km/h 9.5 km/h 86% 0.0 mm
09:44 18.2 °C 15.8 °C 1021.9 hPa Oeste 6.4 km/h 9.3 km/h 86% 0.0 mm
09:49 18.2 °C 15.8 °C 1021.9 hPa Oeste 5.9 km/h 7.6 km/h 86% 0.0 mm
09:54 18.3 °C 15.9 °C 1021.9 hPa ONO 5 km/h 7.4 km/h 86% 0.0 mm
09:59 18.4 °C 15.9 °C 1021.8 hPa ONO 4.8 km/h 7.6 km/h 85.6% 0.0 mm
10:04 18.6 °C 16 °C 1021.8 hPa Oeste 4.7 km/h 8.4 km/h 85% 0.0 mm
10:09 18.7 °C 16.1 °C 1022.1 hPa Oeste 4.8 km/h 9.5 km/h 85% 0.0 mm
10:14 18.7 °C 16.1 °C 1022.1 hPa Oeste 5 km/h 10 km/h 85% 0.0 mm
10:19 18.8 °C 16.1 °C 1022.1 hPa OSO 5.3 km/h 10 km/h 84.3% 0.0 mm
10:24 18.9 °C 16.1 °C 1022.3 hPa SO 5.8 km/h 9.5 km/h 84% 0.0 mm
10:29 18.9 °C 16.1 °C 1022.3 hPa OSO 5.3 km/h 7.4 km/h 84% 0.0 mm
10:34 19 °C 16.2 °C 1022.3 hPa Oeste 4.7 km/h 7.4 km/h 83.9% 0.0 mm
10:39 19.1 °C 16.3 °C 1022.3 hPa ONO 4.1 km/h 3.9 km/h 83.8% 0.0 mm
10:44 19.3 °C 16.3 °C 1022.3 hPa ONO 3.2 km/h 4.7 km/h 83.2% 0.0 mm
10:49 19.4 °C 16.4 °C 1022.3 hPa Sur 3.1 km/h 8.4 km/h 82.7% 0.0 mm
10:54 19.6 °C 16.4 °C 1022.5 hPa SE 2.9 km/h 7.4 km/h 82% 0.0 mm
10:59 19.9 °C 16.8 °C 1022.5 hPa Sur 3 km/h 8.4 km/h 82.1% 0.0 mm
11:04 20.1 °C 16.6 °C 1022.5 hPa SSO 3.2 km/h 9.5 km/h 80.1% 0.0 mm
11:09 20.2 °C 16.5 °C 1022.6 hPa SO 3.8 km/h 8.4 km/h 79.6% 0.0 mm
11:14 20.3 °C 16.6 °C 1022.6 hPa ONO 4.7 km/h 9.3 km/h 79.2% 0.0 mm
11:19 20.3 °C 16.4 °C 1022.6 hPa OSO 4.3 km/h 10 km/h 78% 0.0 mm
11:24 20.3 °C 16.4 °C 1022.6 hPa SO 3.9 km/h 9.3 km/h 78.4% 0.0 mm
11:29 20.3 °C 16.5 °C 1022.6 hPa ONO 4.2 km/h 10 km/h 79% 0.0 mm
11:34 20.3 °C 16.5 °C 1022.6 hPa Oeste 4.7 km/h 9.5 km/h 78.8% 0.0 mm
11:39 20.4 °C 16.5 °C 1022.7 hPa ONO 4.8 km/h 8.4 km/h 78.7% 0.0 mm
11:44 20.4 °C 16.5 °C 1022.7 hPa Oeste 5 km/h 9.5 km/h 78% 0.0 mm
11:49 20.6 °C 16.5 °C 1022.7 hPa ONO 5 km/h 8.4 km/h 77.6% 0.0 mm
11:54 20.7 °C 16.5 °C 1022.7 hPa NO 5 km/h 11.9 km/h 77% 0.0 mm
11:59 20.8 °C 16.5 °C 1022.6 hPa ONO 5 km/h 9.5 km/h 76.2% 0.0 mm
12:04 21 °C 16.6 °C 1022.6 hPa OSO 5 km/h 7.6 km/h 76.1% 0.0 mm
12:09 21.2 °C 16.6 °C 1022.6 hPa SO 4.5 km/h 7.4 km/h 75.1% 0.0 mm
12:14 21.4 °C 16.8 °C 1022.6 hPa ONO 3.9 km/h 5.6 km/h 74.9% 0.0 mm
12:19 21.7 °C 16.8 °C 1022.6 hPa ONO 3.2 km/h 5.6 km/h 73.9% 0.0 mm
12:24 21.9 °C 16.7 °C 1022.6 hPa Oeste 2.3 km/h 5.8 km/h 72.6% 0.0 mm
12:29 21.9 °C 16.6 °C 1022.5 hPa OSO 2.6 km/h 7.4 km/h 72% 0.0 mm
12:34 22.1 °C 16.8 °C 1022.5 hPa OSO 3.2 km/h 7.4 km/h 72% 0.0 mm
12:39 22.2 °C 16.8 °C 1022.5 hPa Oeste 3.1 km/h 5.6 km/h 71.5% 0.0 mm
12:44 22.3 °C 16.8 °C 1022.4 hPa ONO 2.9 km/h 5.8 km/h 71% 0.0 mm
12:49 22.4 °C 16.7 °C 1022.4 hPa NO 3 km/h 9.5 km/h 70.1% 0.0 mm
12:54 22.4 °C 16.7 °C 1022.4 hPa NO 3.2 km/h 9.3 km/h 70% 0.0 mm
12:59 22.3 °C 16.5 °C 1022.4 hPa NO 4 km/h 8.4 km/h 70.1% 0.0 mm
13:04 22.3 °C 16.7 °C 1022.4 hPa NNO 5 km/h 4.7 km/h 71% 0.0 mm
13:09 22.5 °C 16.9 °C 1022.4 hPa NNO 4.2 km/h 8.4 km/h 70.8% 0.0 mm
13:14 22.8 °C 16.8 °C 1022.2 hPa NE 2.9 km/h 10 km/h 69.2% 0.0 mm
13:19 22.8 °C 16.7 °C 1022.2 hPa NO 3.6 km/h 8.4 km/h 68.1% 0.0 mm
13:24 22.8 °C 16.7 °C 1022.2 hPa NNO 4.7 km/h 7.6 km/h 68.4% 0.0 mm
13:29 22.9 °C 16.8 °C 1022.1 hPa ENE 4.7 km/h 9.5 km/h 68.7% 0.0 mm
13:34 22.8 °C 16.7 °C 1022.1 hPa NNE 4.7 km/h 13 km/h 68.4% 0.0 mm
13:39 22.8 °C 16.8 °C 1022.1 hPa NE 5.6 km/h 11.1 km/h 69% 0.0 mm
13:44 22.7 °C 16.7 °C 1021.8 hPa North 6.9 km/h 11.1 km/h 69% 0.0 mm
13:49 22.8 °C 16.8 °C 1021.8 hPa NE 6.5 km/h 11.1 km/h 69% 0.0 mm
13:54 22.8 °C 16.8 °C 1021.8 hPa NE 5.8 km/h 9.3 km/h 69% 0.0 mm
13:59 22.9 °C 16.9 °C 1021.6 hPa North 5.4 km/h 11.1 km/h 69% 0.0 mm
14:04 23 °C 16.8 °C 1021.6 hPa North 5 km/h 7.4 km/h 68% 0.0 mm
14:09 23.1 °C 16.9 °C 1021.6 hPa NE 5 km/h 11.9 km/h 68% 0.0 mm
14:14 23.2 °C 16.9 °C 1021.5 hPa NE 5 km/h 14.8 km/h 67.7% 0.0 mm
14:19 23.3 °C 16.8 °C 1021.5 hPa NNE 5.8 km/h 14.8 km/h 67.1% 0.0 mm
14:24 23.5 °C 17.1 °C 1021.5 hPa NE 6.9 km/h 14.8 km/h 67.5% 0.0 mm
14:29 23.7 °C 17.1 °C 1021.2 hPa NE 7.5 km/h 14.8 km/h 66.6% 0.0 mm
14:34 23.8 °C 17.1 °C 1021.2 hPa NE 8.4 km/h 11.9 km/h 65.9% 0.0 mm
14:39 23.9 °C 16.9 °C 1021.2 hPa NE 7.8 km/h 15.6 km/h 64.6% 0.0 mm
14:44 23.9 °C 16.9 °C 1021.1 hPa ENE 6.9 km/h 17.2 km/h 64.8% 0.0 mm
14:49 23.9 °C 16.7 °C 1021.1 hPa NE 6.9 km/h 16.7 km/h 64.1% 0.0 mm
14:54 24.1 °C 16.9 °C 1021.1 hPa NE 6.9 km/h 20.4 km/h 64.3% 0.0 mm
14:59 24.2 °C 16.8 °C 1020.8 hPa NE 8.1 km/h 16.7 km/h 63.7% 0.0 mm
15:04 24.2 °C 16.7 °C 1020.8 hPa NNE 9.5 km/h 16.7 km/h 63% 0.0 mm
15:09 24.3 °C 16.8 °C 1020.8 hPa NNE 9.2 km/h 18.5 km/h 63% 0.0 mm
15:14 24.3 °C 16.7 °C 1020.7 hPa NE 8.7 km/h 18.5 km/h 62.6% 0.0 mm
15:19 24.4 °C 16.5 °C 1020.7 hPa NNE 9.2 km/h 18.5 km/h 61.4% 0.0 mm
15:24 24.4 °C 16.4 °C 1020.7 hPa NE 10 km/h 20.4 km/h 61% 0.0 mm
15:29 24.3 °C 16.3 °C 1020.5 hPa NE 10.9 km/h 20.4 km/h 61% 0.0 mm
15:34 24.5 °C 16.5 °C 1020.5 hPa NNE 12.2 km/h 20.4 km/h 61% 0.0 mm
15:39 24.7 °C 16.6 °C 1020.5 hPa ENE 11.1 km/h 22.2 km/h 60.8% 0.0 mm
15:44 24.7 °C 16.5 °C 1020.4 hPa NE 9.5 km/h 18.5 km/h 60.3% 0.0 mm
15:49 24.7 °C 16.5 °C 1020.4 hPa NE 10.2 km/h 18.5 km/h 60.3% 0.0 mm
15:54 24.7 °C 16.2 °C 1020.4 hPa ENE 11.1 km/h 20.4 km/h 59.2% 0.0 mm
15:59 24.5 °C 16.1 °C 1020.4 hPa NE 10.4 km/h 16.7 km/h 59.3% 0.0 mm
16:04 24.4 °C 16 °C 1020.4 hPa NE 9.5 km/h 18.5 km/h 59.3% 0.0 mm
16:09 24.4 °C 15.9 °C 1020.5 hPa NE 9.8 km/h 16.1 km/h 59% 0.0 mm
16:14 24.4 °C 15.9 °C 1020.5 hPa ENE 10.3 km/h 16.7 km/h 59.1% 0.0 mm
16:19 24.4 °C 15.9 °C 1020.5 hPa NE 10 km/h 19 km/h 59% 0.0 mm
16:24 24.5 °C 15.9 °C 1020.5 hPa ENE 9.5 km/h 15.6 km/h 58.9% 0.0 mm
16:29 24.7 °C 15.8 °C 1020.4 hPa Este 9.7 km/h 20.4 km/h 58% 0.0 mm
16:34 24.7 °C 15.7 °C 1020.4 hPa ENE 10 km/h 18.5 km/h 57.4% 0.0 mm
16:39 24.8 °C 16 °C 1020.5 hPa ENE 10 km/h 13.7 km/h 58% 0.0 mm
16:44 24.7 °C 15.7 °C 1020.5 hPa ENE 10 km/h 14.8 km/h 57.1% 0.0 mm
16:49 24.6 °C 15.5 °C 1020.5 hPa NE 9.8 km/h 20.4 km/h 57% 0.0 mm
16:54 24.4 °C 15.6 °C 1020.5 hPa ENE 9.5 km/h 16.7 km/h 57.9% 0.0 mm
16:59 24.4 °C 15.6 °C 1020.4 hPa NE 9.1 km/h 17.2 km/h 58% 0.0 mm
17:04 24.3 °C 15.5 °C 1020.4 hPa NE 8.7 km/h 16.7 km/h 58% 0.0 mm
17:09 24.3 °C 15.6 °C 1020.5 hPa ENE 9.2 km/h 16.7 km/h 58% 0.0 mm
17:14 24.3 °C 15.5 °C 1020.5 hPa ENE 10 km/h 20.4 km/h 57.9% 0.0 mm
17:19 24.4 °C 15.4 °C 1020.5 hPa NE 9.8 km/h 15.6 km/h 57.3% 0.0 mm
17:24 24.3 °C 15.5 °C 1020.5 hPa NE 9.5 km/h 14.8 km/h 57.8% 0.0 mm
17:29 24.4 °C 15.6 °C 1020.5 hPa ENE 9.2 km/h 15.6 km/h 58% 0.0 mm
17:34 24.4 °C 15.6 °C 1020.5 hPa NE 8.7 km/h 17.2 km/h 58% 0.0 mm
17:39 24.3 °C 15.5 °C 1020.6 hPa ENE 8.6 km/h 16.7 km/h 58% 0.0 mm
17:44 24.3 °C 15.5 °C 1020.6 hPa NE 8.4 km/h 16.1 km/h 58% 0.0 mm
17:49 24.2 °C 15.5 °C 1020.6 hPa NE 9.2 km/h 18.5 km/h 58.4% 0.0 mm
17:54 24.1 °C 15.6 °C 1020.6 hPa NE 10.3 km/h 19 km/h 59% 0.0 mm
17:59 24.1 °C 15.6 °C 1020.6 hPa NE 9.9 km/h 14.8 km/h 59.1% 0.0 mm
18:04 24.1 °C 15.6 °C 1020.6 hPa ENE 9.5 km/h 14.8 km/h 59% 0.0 mm
18:09 24.1 °C 15.6 °C 1020.7 hPa Este 8.7 km/h 16.4 km/h 59% 0.0 mm
18:14 24.1 °C 15.7 °C 1020.7 hPa Este 7.6 km/h 16.7 km/h 59.6% 0.0 mm
18:19 24.1 °C 15.8 °C 1020.7 hPa Este 8.4 km/h 14.8 km/h 60% 0.0 mm
18:24 24.1 °C 15.9 °C 1020.8 hPa Este 9.5 km/h 15.6 km/h 60.4% 0.0 mm
18:29 23.9 °C 16 °C 1020.8 hPa Este 9.5 km/h 14.8 km/h 61% 0.0 mm
18:34 23.9 °C 16.1 °C 1020.8 hPa ENE 9.5 km/h 16.4 km/h 61.7% 0.0 mm
18:39 23.8 °C 16 °C 1020.9 hPa ENE 8.7 km/h 18.5 km/h 61.8% 0.0 mm
18:44 23.7 °C 15.9 °C 1020.9 hPa ENE 7.6 km/h 17.2 km/h 62% 0.0 mm
18:49 23.6 °C 16 °C 1020.9 hPa ENE 8.4 km/h 13.7 km/h 62.5% 0.0 mm
18:54 23.4 °C 16.1 °C 1021.1 hPa ENE 9.5 km/h 20.4 km/h 63.5% 0.0 mm
18:59 23.3 °C 16.3 °C 1021.1 hPa NE 9 km/h 16.7 km/h 64.9% 0.0 mm
19:04 23.1 °C 16.4 °C 1021.1 hPa NE 8.4 km/h 17.2 km/h 66% 0.0 mm
19:09 22.9 °C 16.4 °C 1021.3 hPa NE 9.1 km/h 19 km/h 66.9% 0.0 mm
19:14 22.7 °C 16.4 °C 1021.3 hPa NE 10.3 km/h 16.7 km/h 67.7% 0.0 mm
19:19 22.6 °C 16.5 °C 1021.3 hPa NE 10.2 km/h 20.4 km/h 68.6% 0.0 mm
19:24 22.4 °C 16.6 °C 1021.4 hPa NE 10 km/h 20.4 km/h 69.7% 0.0 mm
19:29 22.3 °C 16.8 °C 1021.4 hPa NE 10.1 km/h 15.6 km/h 71% 0.0 mm
19:34 22.2 °C 16.9 °C 1021.4 hPa NE 10.3 km/h 13 km/h 71.9% 0.0 mm
19:39 22.1 °C 16.9 °C 1021.7 hPa ENE 8.9 km/h 15.6 km/h 72.1% 0.0 mm
19:44 22 °C 17 °C 1021.7 hPa ENE 6.9 km/h 14.8 km/h 73% 0.0 mm
19:49 21.9 °C 16.8 °C 1021.7 hPa NE 7.5 km/h 13.7 km/h 73% 0.0 mm
19:54 21.8 °C 16.7 °C 1021.8 hPa ENE 8.4 km/h 13.7 km/h 73% 0.0 mm
19:59 21.7 °C 16.7 °C 1021.8 hPa ENE 8 km/h 13 km/h 73% 0.0 mm
20:04 21.7 °C 16.6 °C 1021.8 hPa ENE 7.6 km/h 11.1 km/h 73% 0.0 mm
20:09 21.6 °C 16.5 °C 1022.0 hPa NE 7.1 km/h 11.1 km/h 73% 0.0 mm
20:14 21.4 °C 16.6 °C 1022.0 hPa NE 6.4 km/h 9.5 km/h 73.9% 0.0 mm
20:19 21.4 °C 16.6 °C 1022.0 hPa NE 6.2 km/h 9.3 km/h 74% 0.0 mm
20:24 21.4 °C 16.6 °C 1022.3 hPa NE 5.8 km/h 9.3 km/h 74% 0.0 mm
20:29 21.3 °C 16.5 °C 1022.3 hPa NE 5.8 km/h 9.5 km/h 74% 0.0 mm
20:34 21.3 °C 16.5 °C 1022.3 hPa NE 5.8 km/h 9.3 km/h 74% 0.0 mm
20:39 21.3 °C 16.5 °C 1022.5 hPa NE 5.5 km/h 8.4 km/h 74.1% 0.0 mm
20:44 21.2 °C 16.6 °C 1022.5 hPa NE 5 km/h 7.6 km/h 75% 0.0 mm
20:49 21.2 °C 16.6 °C 1022.5 hPa NE 5 km/h 9.5 km/h 75% 0.0 mm
20:54 21.1 °C 16.5 °C 1022.8 hPa NE 5 km/h 7.4 km/h 75.3% 0.0 mm
20:59 20.9 °C 16.5 °C 1022.8 hPa NNE 4.8 km/h 8.4 km/h 76% 0.0 mm
21:04 20.8 °C 16.5 °C 1022.8 hPa NNE 4.7 km/h 10 km/h 76.5% 0.0 mm
21:09 20.6 °C 16.5 °C 1023.0 hPa NE 5.6 km/h 11.1 km/h 77.4% 0.0 mm
21:14 20.4 °C 16.5 °C 1023.0 hPa NNE 6.9 km/h 11.1 km/h 78% 0.0 mm
21:19 20.4 °C 16.6 °C 1023.0 hPa NNE 6.7 km/h 10 km/h 78.9% 0.0 mm
21:24 20.3 °C 16.6 °C 1023.2 hPa NNE 6.4 km/h 11.9 km/h 79% 0.0 mm
21:29 20.2 °C 16.6 °C 1023.2 hPa NNE 6.6 km/h 13 km/h 79.6% 0.0 mm
21:34 20.2 °C 16.6 °C 1023.2 hPa NNE 6.9 km/h 11.9 km/h 80% 0.0 mm
21:39 20.1 °C 16.7 °C 1023.4 hPa NNE 7.6 km/h 11.9 km/h 80.8% 0.0 mm
21:44 20.1 °C 16.7 °C 1023.4 hPa NNE 8.4 km/h 11.1 km/h 81% 0.0 mm
21:49 20.1 °C 16.7 °C 1023.4 hPa NE 7.8 km/h 8.4 km/h 81% 0.0 mm
21:54 20.1 °C 16.7 °C 1023.5 hPa North 6.9 km/h 9.3 km/h 81% 0.0 mm
21:59 20 °C 16.7 °C 1023.5 hPa NNE 6.1 km/h 7.6 km/h 81% 0.0 mm
22:04 19.9 °C 16.7 °C 1023.5 hPa NNE 5 km/h 5.6 km/h 81.6% 0.0 mm
22:09 19.9 °C 16.7 °C 1023.7 hPa NNE 4.3 km/h 5.6 km/h 82% 0.0 mm
22:14 19.9 °C 16.7 °C 1023.7 hPa NNE 3.2 km/h 4.7 km/h 82% 0.0 mm
22:19 19.8 °C 16.6 °C 1023.7 hPa North 3.1 km/h 4.7 km/h 82% 0.0 mm
22:24 19.8 °C 16.6 °C 1024.0 hPa North 2.9 km/h 5.6 km/h 82% 0.0 mm
22:29 19.7 °C 16.7 °C 1024.0 hPa NNO 2.9 km/h 5.6 km/h 82.9% 0.0 mm
22:34 19.7 °C 16.7 °C 1024.0 hPa NNO 2.9 km/h 5.6 km/h 83% 0.0 mm
22:39 19.6 °C 16.6 °C 1024.1 hPa NNO 2.6 km/h 4.7 km/h 83% 0.0 mm
22:44 19.6 °C 16.6 °C 1024.1 hPa NNO 2.3 km/h 3.9 km/h 83% 0.0 mm
22:49 19.6 °C 16.6 °C 1024.1 hPa NNO 1.3 km/h 3.9 km/h 83.1% 0.0 mm
22:54 19.6 °C 16.8 °C 1024.3 hPa Calm   4.7 km/h 84% 0.0 mm
22:59 19.6 °C 16.8 °C 1024.3 hPa NNO 1 km/h 3.9 km/h 84% 0.0 mm
23:04 19.6 °C 16.8 °C 1024.3 hPa NNO 2.3 km/h 3.7 km/h 84% 0.0 mm
23:09 19.5 °C 16.8 °C 1024.3 hPa NNO 1.3 km/h 1.9 km/h 84% 0.0 mm
23:14 19.5 °C 16.7 °C 1024.3 hPa Calm     84% 0.0 mm
23:19 19.4 °C 16.6 °C 1024.3 hPa Calm   4.7 km/h 84% 0.0 mm
23:24 19.4 °C 16.6 °C 1024.4 hPa Calm   4.7 km/h 84% 0.0 mm
23:29 19.4 °C 16.6 °C 1024.4 hPa NNO 1.1 km/h 5.6 km/h 84% 0.0 mm
23:34 19.4 °C 16.6 °C 1024.4 hPa NNO 2.9 km/h 5.6 km/h 84% 0.0 mm
23:39 19.4 °C 16.6 °C 1024.4 hPa NNO 2.7 km/h 3.7 km/h 84% 0.0 mm
23:44 19.4 °C 16.6 °C 1024.4 hPa NNO 2.3 km/h 5 km/h 84% 0.0 mm
23:49 19.3 °C 16.6 °C 1024.4 hPa NNO 2.5 km/h 7.4 km/h 84.3% 0.0 mm
23:54 19.3 °C 16.7 °C 1024.5 hPa NNO 2.9 km/h 5.6 km/h 85% 0.0 mm
23:59 19.2 °C 16.6 °C 1024.5 hPa NNO 2.9 km/h 3.7 km/h 85% 0.0 mm
Murcia-Puente Tocinos, Espa?a
Compliments of Weather Underground - 3 mb

La estación de MeteoMurcia.com, publica sus datos en los siguientes proyectos:

Weather Underground PWS IMURCIAP2 Meteoclimatic www.awekas.at

W3Counter
Web Analytics